SVGC weather

La Gran China Airport
Zulia, Venezuela

Public forecast

Using degrees Celsius for public forecast. Weather courtesy of forecast.io.

METAR (pilot weather report)

Report is more than 6 hours old.

Closest report is Santa B├írbara del Zulia Airport, 58.0 nm (107.3 km) SE. Retrieved 2016/06/08 18:00 UTC (3 years ago):

SVSZ 081800Z 00000KT CAVOK XX/XX Q1012

TAF (pilot weather forecast)

Forecast is more than 6 hours old.

Closest forecast is La Chinita International Airport, 64.9 nm (120.2 km) NE. Retrieved 2019/05/25 18:05 UTC (10 hours ago):

TAF SVMC 251600Z 2518/2618 09006KT 9999 SCT013 TX35/19Z TN25/07Z TEMPO 2518/2522 VRB08KT 8000 DZ OBKN013